Accueil
METAR-TAF:

METAR-TAF

Aéroports :

Vientiane, Laos

Aéroport international de Wattay

latitude: 17-57N, longitude: 102-34E, altitude: 171 m

Observation

Le bulletin a été fait il y a 13 minutes, à 16:00 UTC
Vent 2 kt de ouest
Température 24°C
Humidité 94%
Pression 1014 hPa
Visibilité: 4000 m
brume

METAR: VLVT 241600Z 27002KT 4000 BR NSC 24/23 Q1014 NOSIG

Heure: 23:13 (16:13 UTC)

Prévision

Le bulletin a été fait il y a 5 heures et 13 minutes, à 11:00 UTC
Prévision valable du 24 à 12 UTC au 25 à 12 UTC
Vent 4 kt de ouest/nord-ouest
Visibilité: 8000 m
Nuages épars à une hauteur de 2000 ft
Quelques nuages à une hauteur de 5000 ft
Temporairement
du 24 à 14 UTC au 24 à 20 UTC
Visibilité: 4000 m
Nuages épars à une hauteur de 5000 ft
brume

TAF: VLVT 241100Z 2412/2512 30004KT 8000 SCT020 FEW050 TEMPO 2414/2420 4000 BR SCT050

Observations et prévisions météorologiques de plus de 4000 aéroports (messages METAR et TAF).

Les stations disponibles sont représentées par des disques jaunes et rouges sur la carte.

Passer la souris dessus pour voir le nom de la station.

Cliquer dessus pour voir les observations et prévisions météorologiques.

Pour changer de carte: cliquez sur les boutons verts avec une croix noire pour zoomer, sur le bouton vert avec un tiret pour effectuer un zoom arrière, ou sur les flèches vertes pour les cartes adjacentes.


METAR-TAF: